sensor_id;sensor_type;location;lat;lon;timestamp;P1;durP1;ratioP1;P2;durP2;ratioP2
7875;SDS011;69649;53.712;9.680;2023-05-10T00:00:07;5.67;;;2.67;;
7875;SDS011;69649;53.712;9.680;2023-05-10T00:02:34;3.80;;;2.50;;
7875;SDS011;69649;53.712;9.680;2023-05-10T00:05:00;5.40;;;2.30;;
7875;SDS011;69649;53.712;9.680;2023-05-10T00:07:26;3.13;;;2.27;;
7875;SDS011;69649;53.712;9.680;2023-05-10T00:09:52;4.17;;;2.40;;
7875;SDS011;69649;53.712;9.680;2023-05-10T00:12:18;4.40;;;2.43;;
7875;SDS011;69649;53.712;9.680;2023-05-10T00:14:44;4.73;;;2.27;;
7875;SDS011;69649;53.712;9.680;2023-05-10T00:17:10;4.87;;;2.57;;
7875;SDS011;69649;53.712;9.680;2023-05-10T00:19:36;4.00;;;2.23;;
7875;SDS011;69649;53.712;9.680;2023-05-10T00:22:01;4.70;;;2.30;;
7875;SDS011;69649;53.712;9.680;2023-05-10T00:24:27;4.00;;;2.30;;
7875;SDS011;69649;53.712;9.680;2023-05-10T00:26:53;3.47;;;2.27;;
7875;SDS011;69649;53.712;9.680;2023-05-10T00:29:18;3.73;;;2.67;;
7875;SDS011;69649;53.712;9.680;2023-05-10T00:31:45;2.80;;;2.27;;
7875;SDS011;69649;53.712;9.680;2023-05-10T00:34:11;3.27;;;2.37;;
7875;SDS011;69649;53.712;9.680;2023-05-10T00:36:37;3.93;;;2.50;;
7875;SDS011;69649;53.712;9.680;2023-05-10T00:39:03;3.30;;;2.23;;
7875;SDS011;69649;53.712;9.680;2023-05-10T00:41:29;2.60;;;2.23;;
7875;SDS011;69649;53.712;9.680;2023-05-10T00:43:57;5.07;;;2.37;;
7875;SDS011;69649;53.712;9.680;2023-05-10T00:46:23;4.93;;;2.30;;
7875;SDS011;69649;53.712;9.680;2023-05-10T00:48:50;2.93;;;2.33;;
7875;SDS011;69649;53.712;9.680;2023-05-10T00:51:16;4.23;;;2.50;;
7875;SDS011;69649;53.712;9.680;2023-05-10T00:53:42;3.20;;;2.10;;
7875;SDS011;69649;53.712;9.680;2023-05-10T00:56:10;3.67;;;2.47;;
7875;SDS011;69649;53.712;9.680;2023-05-10T00:58:36;2.83;;;2.50;;
7875;SDS011;69649;53.712;9.680;2023-05-10T01:01:02;3.50;;;2.80;;
7875;SDS011;69649;53.712;9.680;2023-05-10T01:03:28;3.57;;;2.80;;
7875;SDS011;69649;53.712;9.680;2023-05-10T01:05:54;4.77;;;2.50;;
7875;SDS011;69649;53.712;9.680;2023-05-10T01:08:20;4.03;;;2.60;;
7875;SDS011;69649;53.712;9.680;2023-05-10T01:10:47;7.50;;;2.47;;
7875;SDS011;69649;53.712;9.680;2023-05-10T01:13:17;3.20;;;2.67;;
7875;SDS011;69649;53.712;9.680;2023-05-10T01:15:46;3.53;;;3.00;;
7875;SDS011;69649;53.712;9.680;2023-05-10T01:18:12;4.23;;;2.50;;
7875;SDS011;69649;53.712;9.680;2023-05-10T01:20:40;3.33;;;2.80;;
7875;SDS011;69649;53.712;9.680;2023-05-10T01:26:14;3.50;;;2.70;;
7875;SDS011;69649;53.712;9.680;2023-05-10T01:29:03;4.73;;;2.50;;
7875;SDS011;69649;53.712;9.680;2023-05-10T01:32:11;2.83;;;2.53;;
7875;SDS011;69649;53.712;9.680;2023-05-10T01:34:27;4.10;;;2.50;;
7875;SDS011;69649;53.712;9.680;2023-05-10T01:36:59;2.90;;;2.60;;
7875;SDS011;69649;53.712;9.680;2023-05-10T01:39:48;3.50;;;2.90;;
7875;SDS011;69649;53.712;9.680;2023-05-10T01:42:17;3.20;;;2.80;;
7875;SDS011;69649;53.712;9.680;2023-05-10T01:47:31;3.50;;;3.17;;
7875;SDS011;69649;53.712;9.680;2023-05-10T01:52:47;3.37;;;2.57;;
7875;SDS011;69649;53.712;9.680;2023-05-10T01:55:16;3.37;;;2.60;;
7875;SDS011;69649;53.712;9.680;2023-05-10T01:57:45;5.27;;;2.60;;
7875;SDS011;69649;53.712;9.680;2023-05-10T02:00:13;3.60;;;2.60;;
7875;SDS011;69649;53.712;9.680;2023-05-10T02:02:41;5.83;;;2.70;;
7875;SDS011;69649;53.712;9.680;2023-05-10T02:05:09;4.13;;;2.60;;
7875;SDS011;69649;53.712;9.680;2023-05-10T02:07:38;5.20;;;3.00;;
7875;SDS011;69649;53.712;9.680;2023-05-10T02:10:05;4.30;;;2.43;;
7875;SDS011;69649;53.712;9.680;2023-05-10T02:12:35;3.97;;;3.00;;
7875;SDS011;69649;53.712;9.680;2023-05-10T02:15:02;5.23;;;2.80;;
7875;SDS011;69649;53.712;9.680;2023-05-10T02:17:30;6.47;;;2.87;;
7875;SDS011;69649;53.712;9.680;2023-05-10T02:19:58;3.00;;;2.63;;
7875;SDS011;69649;53.712;9.680;2023-05-10T02:22:25;3.87;;;2.87;;
7875;SDS011;69649;53.712;9.680;2023-05-10T02:24:53;3.63;;;2.80;;
7875;SDS011;69649;53.712;9.680;2023-05-10T02:27:22;7.33;;;3.10;;
7875;SDS011;69649;53.712;9.680;2023-05-10T02:29:49;4.43;;;3.10;;
7875;SDS011;69649;53.712;9.680;2023-05-10T02:32:16;3.47;;;2.70;;
7875;SDS011;69649;53.712;9.680;2023-05-10T02:34:43;3.33;;;2.67;;
7875;SDS011;69649;53.712;9.680;2023-05-10T02:37:12;5.83;;;2.37;;
7875;SDS011;69649;53.712;9.680;2023-05-10T02:39:43;6.33;;;3.37;;
7875;SDS011;69649;53.712;9.680;2023-05-10T02:42:12;3.23;;;2.90;;
7875;SDS011;69649;53.712;9.680;2023-05-10T02:44:41;6.53;;;2.80;;
7875;SDS011;69649;53.712;9.680;2023-05-10T02:47:08;5.80;;;2.90;;
7875;SDS011;69649;53.712;9.680;2023-05-10T02:49:34;3.73;;;2.70;;
7875;SDS011;69649;53.712;9.680;2023-05-10T02:52:01;5.67;;;2.93;;
7875;SDS011;69649;53.712;9.680;2023-05-10T02:54:30;3.87;;;2.87;;
7875;SDS011;69649;53.712;9.680;2023-05-10T02:56:58;5.60;;;2.77;;
7875;SDS011;69649;53.712;9.680;2023-05-10T02:59:26;4.57;;;2.80;;
7875;SDS011;69649;53.712;9.680;2023-05-10T03:01:52;2.80;;;2.50;;
7875;SDS011;69649;53.712;9.680;2023-05-10T03:04:18;4.93;;;2.83;;
7875;SDS011;69649;53.712;9.680;2023-05-10T03:06:44;3.63;;;2.50;;
7875;SDS011;69649;53.712;9.680;2023-05-10T03:09:10;3.80;;;3.10;;
7875;SDS011;69649;53.712;9.680;2023-05-10T03:11:43;8.70;;;3.40;;
7875;SDS011;69649;53.712;9.680;2023-05-10T03:14:33;3.90;;;2.53;;
7875;SDS011;69649;53.712;9.680;2023-05-10T03:17:06;4.67;;;3.10;;
7875;SDS011;69649;53.712;9.680;2023-05-10T03:19:52;3.50;;;2.87;;
7875;SDS011;69649;53.712;9.680;2023-05-10T03:22:25;4.57;;;3.20;;
7875;SDS011;69649;53.712;9.680;2023-05-10T03:24:56;6.83;;;3.10;;
7875;SDS011;69649;53.712;9.680;2023-05-10T03:27:23;3.47;;;2.90;;
7875;SDS011;69649;53.712;9.680;2023-05-10T03:29:52;3.07;;;2.70;;
7875;SDS011;69649;53.712;9.680;2023-05-10T03:32:20;3.73;;;2.90;;
7875;SDS011;69649;53.712;9.680;2023-05-10T03:34:46;4.30;;;3.00;;
7875;SDS011;69649;53.712;9.680;2023-05-10T03:37:11;4.20;;;3.17;;
7875;SDS011;69649;53.712;9.680;2023-05-10T03:39:37;3.13;;;2.77;;
7875;SDS011;69649;53.712;9.680;2023-05-10T03:42:03;3.80;;;3.43;;
7875;SDS011;69649;53.712;9.680;2023-05-10T03:44:29;3.03;;;2.70;;
7875;SDS011;69649;53.712;9.680;2023-05-10T03:46:54;6.27;;;2.93;;
7875;SDS011;69649;53.712;9.680;2023-05-10T03:49:22;6.33;;;4.57;;
7875;SDS011;69649;53.712;9.680;2023-05-10T03:51:48;3.03;;;2.73;;
7875;SDS011;69649;53.712;9.680;2023-05-10T03:54:13;5.27;;;3.30;;
7875;SDS011;69649;53.712;9.680;2023-05-10T03:56:40;5.00;;;2.60;;
7875;SDS011;69649;53.712;9.680;2023-05-10T03:59:05;5.10;;;2.90;;
7875;SDS011;69649;53.712;9.680;2023-05-10T04:01:36;4.70;;;3.23;;
7875;SDS011;69649;53.712;9.680;2023-05-10T04:04:00;4.40;;;3.00;;
7875;SDS011;69649;53.712;9.680;2023-05-10T04:06:26;4.33;;;2.83;;
7875;SDS011;69649;53.712;9.680;2023-05-10T04:08:51;3.00;;;2.70;;
7875;SDS011;69649;53.712;9.680;2023-05-10T04:11:17;3.10;;;2.57;;
7875;SDS011;69649;53.712;9.680;2023-05-10T04:13:45;7.50;;;3.30;;
7875;SDS011;69649;53.712;9.680;2023-05-10T04:16:11;4.10;;;3.00;;
7875;SDS011;69649;53.712;9.680;2023-05-10T04:18:36;5.47;;;3.10;;
7875;SDS011;69649;53.712;9.680;2023-05-10T04:21:02;4.10;;;2.17;;
7875;SDS011;69649;53.712;9.680;2023-05-10T04:23:28;4.07;;;3.13;;
7875;SDS011;69649;53.712;9.680;2023-05-10T04:26:00;3.90;;;2.70;;
7875;SDS011;69649;53.712;9.680;2023-05-10T04:28:26;3.83;;;3.17;;
7875;SDS011;69649;53.712;9.680;2023-05-10T04:30:52;2.90;;;2.60;;
7875;SDS011;69649;53.712;9.680;2023-05-10T04:33:18;7.60;;;2.93;;
7875;SDS011;69649;53.712;9.680;2023-05-10T04:35:44;4.50;;;3.20;;
7875;SDS011;69649;53.712;9.680;2023-05-10T04:38:10;4.13;;;3.53;;
7875;SDS011;69649;53.712;9.680;2023-05-10T04:40:36;4.33;;;3.20;;
7875;SDS011;69649;53.712;9.680;2023-05-10T04:43:01;5.10;;;3.20;;
7875;SDS011;69649;53.712;9.680;2023-05-10T04:45:28;4.67;;;3.43;;
7875;SDS011;69649;53.712;9.680;2023-05-10T04:47:53;4.27;;;2.90;;
7875;SDS011;69649;53.712;9.680;2023-05-10T04:50:19;4.20;;;2.90;;
7875;SDS011;69649;53.712;9.680;2023-05-10T04:52:45;7.40;;;3.37;;
7875;SDS011;69649;53.712;9.680;2023-05-10T04:55:11;3.30;;;2.70;;
7875;SDS011;69649;53.712;9.680;2023-05-10T04:57:36;7.53;;;2.80;;
7875;SDS011;69649;53.712;9.680;2023-05-10T05:00:02;5.43;;;3.00;;
7875;SDS011;69649;53.712;9.680;2023-05-10T05:02:29;4.73;;;3.27;;
7875;SDS011;69649;53.712;9.680;2023-05-10T05:04:55;3.83;;;3.10;;
7875;SDS011;69649;53.712;9.680;2023-05-10T05:07:23;4.63;;;3.00;;
7875;SDS011;69649;53.712;9.680;2023-05-10T05:09:48;6.80;;;3.17;;
7875;SDS011;69649;53.712;9.680;2023-05-10T05:12:15;6.23;;;3.33;;
7875;SDS011;69649;53.712;9.680;2023-05-10T05:14:40;5.17;;;3.23;;
7875;SDS011;69649;53.712;9.680;2023-05-10T05:17:06;4.93;;;3.07;;
7875;SDS011;69649;53.712;9.680;2023-05-10T05:19:32;3.97;;;2.83;;
7875;SDS011;69649;53.712;9.680;2023-05-10T05:22:06;4.63;;;3.43;;
7875;SDS011;69649;53.712;9.680;2023-05-10T05:24:36;5.27;;;3.47;;
7875;SDS011;69649;53.712;9.680;2023-05-10T05:27:05;4.53;;;3.43;;
7875;SDS011;69649;53.712;9.680;2023-05-10T05:29:31;5.83;;;3.47;;
7875;SDS011;69649;53.712;9.680;2023-05-10T05:31:57;4.40;;;2.97;;
7875;SDS011;69649;53.712;9.680;2023-05-10T05:34:25;8.67;;;3.27;;
7875;SDS011;69649;53.712;9.680;2023-05-10T05:36:52;4.00;;;3.00;;
7875;SDS011;69649;53.712;9.680;2023-05-10T05:39:18;4.57;;;3.13;;
7875;SDS011;69649;53.712;9.680;2023-05-10T05:41:43;4.40;;;3.10;;
7875;SDS011;69649;53.712;9.680;2023-05-10T05:44:09;6.13;;;2.80;;
7875;SDS011;69649;53.712;9.680;2023-05-10T05:46:35;3.67;;;3.10;;
7875;SDS011;69649;53.712;9.680;2023-05-10T05:49:01;7.87;;;3.33;;
7875;SDS011;69649;53.712;9.680;2023-05-10T05:51:27;5.23;;;3.13;;
7875;SDS011;69649;53.712;9.680;2023-05-10T05:53:52;4.50;;;3.40;;
7875;SDS011;69649;53.712;9.680;2023-05-10T05:56:18;4.57;;;3.10;;
7875;SDS011;69649;53.712;9.680;2023-05-10T05:58:46;4.50;;;2.80;;
7875;SDS011;69649;53.712;9.680;2023-05-10T06:01:12;4.47;;;3.30;;
7875;SDS011;69649;53.712;9.680;2023-05-10T06:03:38;6.40;;;2.67;;
7875;SDS011;69649;53.712;9.680;2023-05-10T06:06:04;4.47;;;2.97;;
7875;SDS011;69649;53.712;9.680;2023-05-10T06:08:30;5.53;;;3.10;;
7875;SDS011;69649;53.712;9.680;2023-05-10T06:10:56;3.77;;;3.10;;
7875;SDS011;69649;53.712;9.680;2023-05-10T06:13:22;3.73;;;3.10;;
7875;SDS011;69649;53.712;9.680;2023-05-10T06:15:47;4.83;;;3.60;;
7875;SDS011;69649;53.712;9.680;2023-05-10T06:18:13;4.93;;;3.07;;
7875;SDS011;69649;53.712;9.680;2023-05-10T06:20:40;4.73;;;2.90;;
7875;SDS011;69649;53.712;9.680;2023-05-10T06:23:07;4.10;;;2.70;;
7875;SDS011;69649;53.712;9.680;2023-05-10T06:25:33;4.03;;;2.87;;
7875;SDS011;69649;53.712;9.680;2023-05-10T06:27:58;4.77;;;3.20;;
7875;SDS011;69649;53.712;9.680;2023-05-10T06:30:25;4.53;;;3.23;;
7875;SDS011;69649;53.712;9.680;2023-05-10T06:32:53;4.83;;;3.17;;
7875;SDS011;69649;53.712;9.680;2023-05-10T06:35:19;4.00;;;2.80;;
7875;SDS011;69649;53.712;9.680;2023-05-10T06:37:44;6.27;;;3.23;;
7875;SDS011;69649;53.712;9.680;2023-05-10T06:40:12;3.93;;;2.93;;
7875;SDS011;69649;53.712;9.680;2023-05-10T06:42:37;6.70;;;3.23;;
7875;SDS011;69649;53.712;9.680;2023-05-10T06:45:04;5.93;;;2.70;;
7875;SDS011;69649;53.712;9.680;2023-05-10T06:47:31;4.30;;;2.97;;
7875;SDS011;69649;53.712;9.680;2023-05-10T06:49:56;6.37;;;3.50;;
7875;SDS011;69649;53.712;9.680;2023-05-10T06:52:22;5.43;;;3.63;;
7875;SDS011;69649;53.712;9.680;2023-05-10T06:54:48;5.03;;;3.33;;
7875;SDS011;69649;53.712;9.680;2023-05-10T06:57:14;5.30;;;3.40;;
7875;SDS011;69649;53.712;9.680;2023-05-10T06:59:40;7.87;;;3.60;;
7875;SDS011;69649;53.712;9.680;2023-05-10T07:02:05;4.93;;;3.30;;
7875;SDS011;69649;53.712;9.680;2023-05-10T07:04:31;6.37;;;2.87;;
7875;SDS011;69649;53.712;9.680;2023-05-10T07:06:57;4.60;;;3.07;;
7875;SDS011;69649;53.712;9.680;2023-05-10T07:09:23;3.80;;;2.73;;
7875;SDS011;69649;53.712;9.680;2023-05-10T07:11:49;3.90;;;2.53;;
7875;SDS011;69649;53.712;9.680;2023-05-10T07:14:15;5.03;;;2.87;;
7875;SDS011;69649;53.712;9.680;2023-05-10T07:16:41;6.03;;;3.30;;
7875;SDS011;69649;53.712;9.680;2023-05-10T07:19:06;5.97;;;2.93;;
7875;SDS011;69649;53.712;9.680;2023-05-10T07:21:32;5.80;;;3.00;;
7875;SDS011;69649;53.712;9.680;2023-05-10T07:23:58;4.93;;;2.97;;
7875;SDS011;69649;53.712;9.680;2023-05-10T07:26:26;3.90;;;2.73;;
7875;SDS011;69649;53.712;9.680;2023-05-10T07:28:51;4.13;;;3.27;;
7875;SDS011;69649;53.712;9.680;2023-05-10T07:31:17;3.90;;;3.17;;
7875;SDS011;69649;53.712;9.680;2023-05-10T07:33:43;4.97;;;3.23;;
7875;SDS011;69649;53.712;9.680;2023-05-10T07:36:08;3.53;;;2.97;;
7875;SDS011;69649;53.712;9.680;2023-05-10T07:38:34;4.70;;;2.97;;
7875;SDS011;69649;53.712;9.680;2023-05-10T07:41:00;6.70;;;3.10;;
7875;SDS011;69649;53.712;9.680;2023-05-10T07:43:26;3.83;;;3.10;;
7875;SDS011;69649;53.712;9.680;2023-05-10T07:45:51;3.87;;;2.90;;
7875;SDS011;69649;53.712;9.680;2023-05-10T07:48:18;5.20;;;3.40;;
7875;SDS011;69649;53.712;9.680;2023-05-10T07:50:43;4.80;;;2.73;;
7875;SDS011;69649;53.712;9.680;2023-05-10T07:53:09;5.60;;;3.37;;
7875;SDS011;69649;53.712;9.680;2023-05-10T07:55:35;4.43;;;3.10;;
7875;SDS011;69649;53.712;9.680;2023-05-10T07:58:00;4.40;;;3.20;;
7875;SDS011;69649;53.712;9.680;2023-05-10T08:00:26;3.93;;;2.70;;
7875;SDS011;69649;53.712;9.680;2023-05-10T08:02:52;9.17;;;3.37;;
7875;SDS011;69649;53.712;9.680;2023-05-10T08:05:18;3.43;;;3.10;;
7875;SDS011;69649;53.712;9.680;2023-05-10T08:07:44;5.07;;;3.30;;
7875;SDS011;69649;53.712;9.680;2023-05-10T08:10:10;5.97;;;3.30;;
7875;SDS011;69649;53.712;9.680;2023-05-10T08:12:38;6.53;;;3.37;;
7875;SDS011;69649;53.712;9.680;2023-05-10T08:15:05;3.93;;;3.17;;
7875;SDS011;69649;53.712;9.680;2023-05-10T08:17:31;4.17;;;2.90;;
7875;SDS011;69649;53.712;9.680;2023-05-10T08:19:57;6.93;;;3.37;;
7875;SDS011;69649;53.712;9.680;2023-05-10T08:22:23;3.63;;;2.63;;
7875;SDS011;69649;53.712;9.680;2023-05-10T08:24:50;8.33;;;3.27;;
7875;SDS011;69649;53.712;9.680;2023-05-10T08:27:16;3.27;;;2.80;;
7875;SDS011;69649;53.712;9.680;2023-05-10T08:29:41;4.80;;;3.00;;
7875;SDS011;69649;53.712;9.680;2023-05-10T08:32:07;3.27;;;2.33;;
7875;SDS011;69649;53.712;9.680;2023-05-10T08:34:33;3.70;;;2.97;;
7875;SDS011;69649;53.712;9.680;2023-05-10T08:36:58;4.87;;;3.00;;
7875;SDS011;69649;53.712;9.680;2023-05-10T08:39:24;4.63;;;2.87;;
7875;SDS011;69649;53.712;9.680;2023-05-10T08:41:51;3.27;;;2.60;;
7875;SDS011;69649;53.712;9.680;2023-05-10T08:44:18;4.27;;;2.87;;
7875;SDS011;69649;53.712;9.680;2023-05-10T08:46:46;4.87;;;3.70;;
7875;SDS011;69649;53.712;9.680;2023-05-10T08:49:15;4.63;;;3.10;;
7875;SDS011;69649;53.712;9.680;2023-05-10T08:51:47;6.53;;;2.80;;
7875;SDS011;69649;53.712;9.680;2023-05-10T08:54:18;6.30;;;4.23;;
7875;SDS011;69649;53.712;9.680;2023-05-10T08:56:44;5.03;;;3.30;;
7875;SDS011;69649;53.712;9.680;2023-05-10T08:59:10;6.67;;;3.97;;
7875;SDS011;69649;53.712;9.680;2023-05-10T09:01:37;5.67;;;4.00;;
7875;SDS011;69649;53.712;9.680;2023-05-10T09:04:04;8.40;;;3.73;;
7875;SDS011;69649;53.712;9.680;2023-05-10T09:06:29;4.93;;;3.50;;
7875;SDS011;69649;53.712;9.680;2023-05-10T09:08:55;6.97;;;3.90;;
7875;SDS011;69649;53.712;9.680;2023-05-10T09:11:21;4.20;;;3.43;;
7875;SDS011;69649;53.712;9.680;2023-05-10T09:13:48;7.27;;;3.90;;
7875;SDS011;69649;53.712;9.680;2023-05-10T09:16:16;4.27;;;3.87;;
7875;SDS011;69649;53.712;9.680;2023-05-10T09:18:42;4.90;;;3.93;;
7875;SDS011;69649;53.712;9.680;2023-05-10T09:21:08;6.23;;;4.07;;
7875;SDS011;69649;53.712;9.680;2023-05-10T09:23:35;6.83;;;4.13;;
7875;SDS011;69649;53.712;9.680;2023-05-10T09:26:04;4.90;;;3.80;;
7875;SDS011;69649;53.712;9.680;2023-05-10T09:28:31;4.77;;;3.40;;
7875;SDS011;69649;53.712;9.680;2023-05-10T09:30:58;4.63;;;4.13;;
7875;SDS011;69649;53.712;9.680;2023-05-10T09:33:24;5.27;;;3.83;;
7875;SDS011;69649;53.712;9.680;2023-05-10T09:35:51;5.00;;;3.77;;
7875;SDS011;69649;53.712;9.680;2023-05-10T09:38:17;6.07;;;4.00;;
7875;SDS011;69649;53.712;9.680;2023-05-10T09:40:50;5.10;;;3.80;;
7875;SDS011;69649;53.712;9.680;2023-05-10T09:43:12;6.40;;;4.00;;
7875;SDS011;69649;53.712;9.680;2023-05-10T09:45:38;5.23;;;3.83;;
7875;SDS011;69649;53.712;9.680;2023-05-10T09:48:06;5.80;;;4.20;;
7875;SDS011;69649;53.712;9.680;2023-05-10T09:50:32;4.40;;;3.70;;
7875;SDS011;69649;53.712;9.680;2023-05-10T09:53:00;7.17;;;4.37;;
7875;SDS011;69649;53.712;9.680;2023-05-10T09:58:07;4.70;;;4.17;;
7875;SDS011;69649;53.712;9.680;2023-05-10T10:00:41;6.90;;;4.80;;
7875;SDS011;69649;53.712;9.680;2023-05-10T10:03:15;4.73;;;3.83;;
7875;SDS011;69649;53.712;9.680;2023-05-10T10:05:42;7.50;;;4.37;;
7875;SDS011;69649;53.712;9.680;2023-05-10T10:08:10;7.00;;;4.93;;
7875;SDS011;69649;53.712;9.680;2023-05-10T10:10:37;6.90;;;4.97;;
7875;SDS011;69649;53.712;9.680;2023-05-10T10:13:05;8.00;;;5.17;;
7875;SDS011;69649;53.712;9.680;2023-05-10T10:15:31;9.03;;;5.60;;
7875;SDS011;69649;53.712;9.680;2023-05-10T10:17:58;7.13;;;5.57;;
7875;SDS011;69649;53.712;9.680;2023-05-10T10:20:26;8.57;;;4.90;;
7875;SDS011;69649;53.712;9.680;2023-05-10T10:22:52;7.17;;;5.50;;
7875;SDS011;69649;53.712;9.680;2023-05-10T10:25:19;7.53;;;5.23;;
7875;SDS011;69649;53.712;9.680;2023-05-10T10:27:54;8.83;;;5.70;;
7875;SDS011;69649;53.712;9.680;2023-05-10T10:30:27;8.97;;;5.87;;
7875;SDS011;69649;53.712;9.680;2023-05-10T10:35:45;6.50;;;4.90;;
7875;SDS011;69649;53.712;9.680;2023-05-10T10:38:12;7.10;;;5.63;;
7875;SDS011;69649;53.712;9.680;2023-05-10T10:40:39;5.67;;;4.70;;
7875;SDS011;69649;53.712;9.680;2023-05-10T10:43:25;6.20;;;5.07;;
7875;SDS011;69649;53.712;9.680;2023-05-10T10:51:10;6.63;;;5.57;;
7875;SDS011;69649;53.712;9.680;2023-05-10T10:53:39;6.93;;;5.70;;
7875;SDS011;69649;53.712;9.680;2023-05-10T10:56:09;6.80;;;5.47;;
7875;SDS011;69649;53.712;9.680;2023-05-10T10:58:39;7.93;;;5.80;;
7875;SDS011;69649;53.712;9.680;2023-05-10T11:01:13;8.47;;;5.60;;
7875;SDS011;69649;53.712;9.680;2023-05-10T11:04:28;7.97;;;4.93;;
7875;SDS011;69649;53.712;9.680;2023-05-10T11:06:42;7.47;;;5.30;;
7875;SDS011;69649;53.712;9.680;2023-05-10T11:08:57;8.13;;;5.63;;
7875;SDS011;69649;53.712;9.680;2023-05-10T11:11:23;8.60;;;6.67;;
7875;SDS011;69649;53.712;9.680;2023-05-10T11:13:49;6.23;;;5.63;;
7875;SDS011;69649;53.712;9.680;2023-05-10T11:16:16;7.93;;;5.63;;
7875;SDS011;69649;53.712;9.680;2023-05-10T11:19:01;7.93;;;6.07;;
7875;SDS011;69649;53.712;9.680;2023-05-10T11:21:32;8.67;;;6.30;;
7875;SDS011;69649;53.712;9.680;2023-05-10T11:24:00;8.50;;;6.20;;
7875;SDS011;69649;53.712;9.680;2023-05-10T11:26:32;9.87;;;6.23;;
7875;SDS011;69649;53.712;9.680;2023-05-10T11:29:00;8.20;;;5.57;;
7875;SDS011;69649;53.712;9.680;2023-05-10T11:31:28;7.57;;;5.67;;
7875;SDS011;69649;53.712;9.680;2023-05-10T11:33:55;8.37;;;5.03;;
7875;SDS011;69649;53.712;9.680;2023-05-10T11:36:24;8.77;;;5.73;;
7875;SDS011;69649;53.712;9.680;2023-05-10T11:38:51;8.43;;;5.73;;
7875;SDS011;69649;53.712;9.680;2023-05-10T11:41:18;9.50;;;6.13;;
7875;SDS011;69649;53.712;9.680;2023-05-10T11:43:51;8.43;;;5.77;;
7875;SDS011;69649;53.712;9.680;2023-05-10T11:46:19;7.40;;;6.30;;
7875;SDS011;69649;53.712;9.680;2023-05-10T11:48:49;10.40;;;7.23;;
7875;SDS011;69649;53.712;9.680;2023-05-10T11:51:25;10.03;;;7.03;;
7875;SDS011;69649;53.712;9.680;2023-05-10T11:53:49;9.23;;;6.80;;
7875;SDS011;69649;53.712;9.680;2023-05-10T11:56:16;8.23;;;5.57;;
7875;SDS011;69649;53.712;9.680;2023-05-10T11:58:42;7.33;;;5.73;;
7875;SDS011;69649;53.712;9.680;2023-05-10T12:01:08;7.67;;;6.07;;
7875;SDS011;69649;53.712;9.680;2023-05-10T12:03:35;11.50;;;6.17;;
7875;SDS011;69649;53.712;9.680;2023-05-10T12:06:02;8.43;;;6.10;;
7875;SDS011;69649;53.712;9.680;2023-05-10T12:08:30;9.00;;;5.90;;
7875;SDS011;69649;53.712;9.680;2023-05-10T12:11:06;7.33;;;5.73;;
7875;SDS011;69649;53.712;9.680;2023-05-10T12:13:37;8.43;;;6.10;;
7875;SDS011;69649;53.712;9.680;2023-05-10T12:16:39;8.17;;;5.83;;
7875;SDS011;69649;53.712;9.680;2023-05-10T12:18:43;10.53;;;5.53;;
7875;SDS011;69649;53.712;9.680;2023-05-10T12:21:10;7.40;;;4.63;;
7875;SDS011;69649;53.712;9.680;2023-05-10T12:23:37;6.97;;;5.37;;
7875;SDS011;69649;53.712;9.680;2023-05-10T12:26:03;7.53;;;5.37;;
7875;SDS011;69649;53.712;9.680;2023-05-10T12:28:30;7.13;;;5.50;;
7875;SDS011;69649;53.712;9.680;2023-05-10T12:31:01;6.30;;;3.73;;
7875;SDS011;69649;53.712;9.680;2023-05-10T12:33:25;6.37;;;4.73;;
7875;SDS011;69649;53.712;9.680;2023-05-10T12:35:51;5.90;;;4.17;;
7875;SDS011;69649;53.712;9.680;2023-05-10T12:38:28;5.27;;;4.60;;
7875;SDS011;69649;53.712;9.680;2023-05-10T12:40:56;5.60;;;4.37;;
7875;SDS011;69649;53.712;9.680;2023-05-10T12:43:23;6.03;;;5.40;;
7875;SDS011;69649;53.712;9.680;2023-05-10T12:45:49;5.57;;;4.33;;
7875;SDS011;69649;53.712;9.680;2023-05-10T12:48:15;5.40;;;4.13;;
7875;SDS011;69649;53.712;9.680;2023-05-10T12:50:40;6.57;;;4.33;;
7875;SDS011;69649;53.712;9.680;2023-05-10T12:53:06;5.80;;;4.40;;
7875;SDS011;69649;53.712;9.680;2023-05-10T12:55:32;5.67;;;4.40;;
7875;SDS011;69649;53.712;9.680;2023-05-10T12:57:58;4.53;;;4.10;;
7875;SDS011;69649;53.712;9.680;2023-05-10T13:00:24;7.40;;;4.80;;
7875;SDS011;69649;53.712;9.680;2023-05-10T13:02:49;5.10;;;4.60;;
7875;SDS011;69649;53.712;9.680;2023-05-10T13:05:15;5.97;;;4.67;;
7875;SDS011;69649;53.712;9.680;2023-05-10T13:07:41;5.23;;;4.70;;
7875;SDS011;69649;53.712;9.680;2023-05-10T13:10:09;7.93;;;4.27;;
7875;SDS011;69649;53.712;9.680;2023-05-10T13:12:35;7.23;;;4.70;;
7875;SDS011;69649;53.712;9.680;2023-05-10T13:15:01;5.93;;;4.23;;
7875;SDS011;69649;53.712;9.680;2023-05-10T13:17:28;5.90;;;4.80;;
7875;SDS011;69649;53.712;9.680;2023-05-10T13:19:54;5.73;;;4.00;;
7875;SDS011;69649;53.712;9.680;2023-05-10T13:22:20;4.93;;;4.43;;
7875;SDS011;69649;53.712;9.680;2023-05-10T13:24:46;5.33;;;3.87;;
7875;SDS011;69649;53.712;9.680;2023-05-10T13:27:11;5.97;;;4.80;;
7875;SDS011;69649;53.712;9.680;2023-05-10T13:32:03;6.20;;;5.53;;
7875;SDS011;69649;53.712;9.680;2023-05-10T13:34:29;6.50;;;5.73;;
7875;SDS011;69649;53.712;9.680;2023-05-10T13:36:54;5.87;;;5.33;;
7875;SDS011;69649;53.712;9.680;2023-05-10T13:39:21;6.17;;;5.57;;
7875;SDS011;69649;53.712;9.680;2023-05-10T13:41:47;7.00;;;6.07;;
7875;SDS011;69649;53.712;9.680;2023-05-10T13:44:13;5.83;;;5.23;;
7875;SDS011;69649;53.712;9.680;2023-05-10T13:46:44;8.93;;;5.73;;
7875;SDS011;69649;53.712;9.680;2023-05-10T13:49:11;7.17;;;6.47;;
7875;SDS011;69649;53.712;9.680;2023-05-10T13:51:35;7.43;;;5.97;;
7875;SDS011;69649;53.712;9.680;2023-05-10T13:54:01;6.73;;;6.00;;
7875;SDS011;69649;53.712;9.680;2023-05-10T13:56:29;7.50;;;6.60;;
7875;SDS011;69649;53.712;9.680;2023-05-10T13:58:56;8.37;;;6.57;;
7875;SDS011;69649;53.712;9.680;2023-05-10T14:01:23;7.87;;;6.27;;
7875;SDS011;69649;53.712;9.680;2023-05-10T14:03:49;7.57;;;6.77;;
7875;SDS011;69649;53.712;9.680;2023-05-10T14:06:15;7.47;;;6.77;;
7875;SDS011;69649;53.712;9.680;2023-05-10T14:08:41;7.00;;;6.30;;
7875;SDS011;69649;53.712;9.680;2023-05-10T14:11:07;6.97;;;6.07;;
7875;SDS011;69649;53.712;9.680;2023-05-10T14:13:33;8.07;;;6.73;;
7875;SDS011;69649;53.712;9.680;2023-05-10T14:15:59;7.63;;;6.23;;
7875;SDS011;69649;53.712;9.680;2023-05-10T14:18:30;7.43;;;5.93;;
7875;SDS011;69649;53.712;9.680;2023-05-10T14:20:53;7.07;;;6.33;;
7875;SDS011;69649;53.712;9.680;2023-05-10T14:23:19;6.97;;;6.27;;
7875;SDS011;69649;53.712;9.680;2023-05-10T14:25:47;8.03;;;6.00;;
7875;SDS011;69649;53.712;9.680;2023-05-10T14:28:13;7.63;;;6.90;;
7875;SDS011;69649;53.712;9.680;2023-05-10T14:30:39;7.67;;;6.97;;
7875;SDS011;69649;53.712;9.680;2023-05-10T14:33:05;7.10;;;6.40;;
7875;SDS011;69649;53.712;9.680;2023-05-10T14:35:31;8.83;;;6.57;;
7875;SDS011;69649;53.712;9.680;2023-05-10T14:37:57;7.20;;;6.43;;
7875;SDS011;69649;53.712;9.680;2023-05-10T14:40:23;6.30;;;5.53;;
7875;SDS011;69649;53.712;9.680;2023-05-10T14:42:50;6.93;;;6.07;;
7875;SDS011;69649;53.712;9.680;2023-05-10T14:45:16;8.00;;;7.20;;
7875;SDS011;69649;53.712;9.680;2023-05-10T14:47:42;7.20;;;6.50;;
7875;SDS011;69649;53.712;9.680;2023-05-10T14:50:08;8.40;;;6.77;;
7875;SDS011;69649;53.712;9.680;2023-05-10T14:52:34;9.17;;;6.50;;
7875;SDS011;69649;53.712;9.680;2023-05-10T14:55:00;6.77;;;6.07;;
7875;SDS011;69649;53.712;9.680;2023-05-10T14:57:26;7.57;;;6.17;;
7875;SDS011;69649;53.712;9.680;2023-05-10T14:59:54;6.77;;;6.07;;
7875;SDS011;69649;53.712;9.680;2023-05-10T15:02:20;6.70;;;5.70;;
7875;SDS011;69649;53.712;9.680;2023-05-10T15:04:46;6.47;;;5.77;;
7875;SDS011;69649;53.712;9.680;2023-05-10T15:07:12;6.97;;;5.77;;
7875;SDS011;69649;53.712;9.680;2023-05-10T15:09:40;7.97;;;6.20;;
7875;SDS011;69649;53.712;9.680;2023-05-10T15:12:05;6.07;;;5.57;;
7875;SDS011;69649;53.712;9.680;2023-05-10T15:14:31;6.93;;;6.27;;
7875;SDS011;69649;53.712;9.680;2023-05-10T15:16:58;7.87;;;7.07;;
7875;SDS011;69649;53.712;9.680;2023-05-10T15:19:25;7.30;;;6.40;;
7875;SDS011;69649;53.712;9.680;2023-05-10T15:21:50;6.53;;;5.93;;